To NAV CANADA Home Page Login to a new session Search on AWWS site Feedback and Comments Disclaimer Vers la page française équivalente Tips FAQ What's new on the site To the Forecasts and Observations / NOTAM section To "File a Flight Plan" website Publications and other links Update of the User's profile FIC Telephone Numbers My Weather Data Folder Route Weather Data Regional Weather Data Local Weather Data To the Forecasts and Observations / NOTAM section
Request Generated 09/01/2015 at 07:51:26 UTC . Weather information available at that time is displayed.

METAR/TAF

TORONTO/BUTTONVILLE MUNICIPAL/ON    

METAR CYKZ 010700Z 35004KT 7SM OVC005 19/18 A3006 RMK ST8 SLP178
DENSITY ALT 1100FT=
SPECI CYKZ 010654Z 33004KT 6SM BR OVC005 19/18 A3006 RMK ST8 SLP177
DENSITY ALT 1100FT=
METAR CYKZ 010600Z 36005KT 320V020 2SM BR OVC002 19/18 A3006 RMK
FG2ST6 SLP176 DENSITY ALT 1100FT=
SPECI CYKZ 010538Z 34005KT 2SM BR OVC002 19/18 A3006 RMK FG3ST5
SLP176 DENSITY ALT 1000FT=
METAR CYKZ 010500Z 34005KT 8SM OVC003 19/18 A3006 RMK ST8 SLP176
DENSITY ALT 1100FT=

TAF CYKZ 010538Z 0106/0118 35005KT 2SM BR BKN004 OVC010 TEMPO
0106/0114 6SM BR SCT004 OVC010
FM011400 24005KT P6SM FEW020 TEMPO 0114/0116 BKN020
RMK NXT FCST BY 011200Z=
Your time UTC time
Weather data provided by Environment Canada and NAV CANADA